createdAt,value
2023-05-16T00:03:26.006Z,2.72
2023-05-16T00:08:27.712Z,3.42
2023-05-16T00:13:29.756Z,3.47
2023-05-16T00:18:31.369Z,3.17
2023-05-16T00:23:33.296Z,3.47
2023-05-16T00:28:34.789Z,3.80
2023-05-16T00:33:36.420Z,4.38
2023-05-16T00:38:37.985Z,4.45
2023-05-16T00:43:40.284Z,5.32
2023-05-16T00:48:42.003Z,6.43
2023-05-16T00:53:43.836Z,7.50
2023-05-16T00:58:45.521Z,7.68
2023-05-16T01:03:47.988Z,9.27
2023-05-16T01:08:49.807Z,8.10
2023-05-16T01:14:17.069Z,8.95
2023-05-16T01:24:58.828Z,9.07
2023-05-16T01:30:01.154Z,9.85
2023-05-16T01:35:02.717Z,9.25
2023-05-16T01:40:07.451Z,9.82
2023-05-16T01:45:15.480Z,8.98
2023-05-16T01:50:21.056Z,9.90
2023-05-16T01:55:46.032Z,11.13
2023-05-16T02:00:47.624Z,12.27
2023-05-16T02:05:49.113Z,11.75
2023-05-16T02:10:50.652Z,12.75
2023-05-16T02:15:52.220Z,12.98
2023-05-16T02:20:53.968Z,14.13
2023-05-16T02:25:55.593Z,15.85
2023-05-16T02:30:58.714Z,15.82
2023-05-16T02:36:00.276Z,14.75
2023-05-16T02:41:02.030Z,16.63
2023-05-16T02:46:30.407Z,12.80
2023-05-16T02:51:32.029Z,10.25
2023-05-16T02:56:33.537Z,8.00
2023-05-16T03:01:35.062Z,7.30
2023-05-16T03:06:36.616Z,6.30
2023-05-16T03:11:38.164Z,6.47
2023-05-16T03:16:40.146Z,6.57
2023-05-16T03:21:42.026Z,6.10
2023-05-16T03:26:43.763Z,5.75
2023-05-16T03:31:45.434Z,6.30
2023-05-16T03:36:51.017Z,7.38
2023-05-16T03:41:52.500Z,6.00
2023-05-16T03:46:54.440Z,6.15
2023-05-16T03:51:55.971Z,6.03
2023-05-16T03:56:57.550Z,7.95
2023-05-16T04:01:59.066Z,7.15
2023-05-16T04:07:02.115Z,6.40
2023-05-16T04:12:03.834Z,7.35
2023-05-16T04:17:05.441Z,7.25
2023-05-16T04:22:07.074Z,6.80
2023-05-16T04:27:08.632Z,6.78
2023-05-16T04:32:10.135Z,6.65
2023-05-16T04:37:11.630Z,5.85
2023-05-16T04:42:13.149Z,6.13
2023-05-16T04:47:14.680Z,5.60
2023-05-16T04:52:16.228Z,7.15
2023-05-16T04:57:17.803Z,6.07
2023-05-16T05:02:19.335Z,6.28
2023-05-16T05:07:20.876Z,5.63
2023-05-16T05:12:22.692Z,6.38
2023-05-16T05:17:24.355Z,5.07
2023-05-16T05:22:26.006Z,6.00
2023-05-16T05:27:27.577Z,5.50
2023-05-16T05:32:29.298Z,4.78
2023-05-16T05:37:30.805Z,4.05
2023-05-16T05:42:33.015Z,4.72
2023-05-16T05:47:34.728Z,3.95
2023-05-16T05:52:36.698Z,4.13
2023-05-16T05:57:38.317Z,2.65
2023-05-16T06:02:39.989Z,2.90
2023-05-16T06:07:41.661Z,2.47
2023-05-16T06:12:43.158Z,3.15
2023-05-16T06:17:44.746Z,1.92
2023-05-16T06:22:47.778Z,2.70
2023-05-16T06:27:49.298Z,1.88
2023-05-16T06:32:50.852Z,2.10
2023-05-16T06:37:52.337Z,3.05
2023-05-16T06:42:53.891Z,2.20
2023-05-16T06:47:57.502Z,2.58
2023-05-16T06:52:59.287Z,1.33
2023-05-16T06:58:00.894Z,2.08
2023-05-16T07:03:03.087Z,2.50
2023-05-16T07:08:07.580Z,2.00
2023-05-16T07:13:09.563Z,1.45
2023-05-16T07:18:11.202Z,1.95
2023-05-16T07:23:12.917Z,1.83
2023-05-16T07:28:14.447Z,1.50
2023-05-16T07:33:16.055Z,1.98
2023-05-16T07:38:17.618Z,1.30
2023-05-16T07:43:19.176Z,1.35
2023-05-16T07:48:20.764Z,1.90
2023-05-16T07:53:22.408Z,1.40
2023-05-16T07:58:24.015Z,1.33
2023-05-16T08:03:25.995Z,1.20
2023-05-16T08:08:27.721Z,1.17
2023-05-16T08:13:29.647Z,2.45
2023-05-16T08:18:31.395Z,1.63
2023-05-16T08:23:33.529Z,1.60
2023-05-16T08:28:35.054Z,1.73
2023-05-16T08:33:36.635Z,1.65
2023-05-16T08:38:38.172Z,1.60
2023-05-16T08:43:39.854Z,1.23
2023-05-16T08:48:45.967Z,1.65
2023-05-16T08:54:11.222Z,1.33
2023-05-16T08:59:13.430Z,1.60
2023-05-16T09:04:16.350Z,2.20
2023-05-16T09:09:18.089Z,2.70
2023-05-16T09:14:19.641Z,2.45
2023-05-16T09:19:23.241Z,2.08
2023-05-16T09:24:25.980Z,1.98
2023-05-16T09:29:27.540Z,1.83
2023-05-16T09:34:29.132Z,1.80
2023-05-16T09:39:30.676Z,0.93
2023-05-16T09:44:32.336Z,1.52
2023-05-16T09:49:34.041Z,1.30
2023-05-16T09:54:35.797Z,1.52
2023-05-16T09:59:38.715Z,1.80
2023-05-16T10:04:40.387Z,1.77
2023-05-16T10:09:43.713Z,1.42
2023-05-16T10:14:46.841Z,1.75
2023-05-16T10:19:49.197Z,1.30
2023-05-16T10:25:06.462Z,1.52
2023-05-16T10:30:09.761Z,1.23
2023-05-16T10:35:11.693Z,1.15
2023-05-16T10:40:13.462Z,2.13
2023-05-16T10:45:18.530Z,1.55
2023-05-16T10:50:40.300Z,1.92
2023-05-16T10:56:06.491Z,2.05
2023-05-16T11:01:35.597Z,1.45
2023-05-16T11:06:43.221Z,1.83
2023-05-16T11:11:49.453Z,0.80
2023-05-16T11:16:53.363Z,1.08
2023-05-16T11:22:07.985Z,1.10
2023-05-16T11:27:14.173Z,1.20
2023-05-16T11:32:19.635Z,1.05
2023-05-16T11:37:21.205Z,1.50
2023-05-16T11:42:22.787Z,1.13
2023-05-16T11:47:24.679Z,1.33
2023-05-16T11:52:26.353Z,1.33
2023-05-16T11:57:27.996Z,1.65
2023-05-16T12:02:29.635Z,1.35
2023-05-16T12:07:31.361Z,1.40
2023-05-16T12:12:33.181Z,1.42
2023-05-16T12:17:36.460Z,1.55
2023-05-16T12:22:44.699Z,1.83
2023-05-16T12:27:46.701Z,1.67
2023-05-16T12:32:53.511Z,1.33
2023-05-16T12:37:55.237Z,1.48
2023-05-16T12:42:57.593Z,0.85
2023-05-16T12:48:05.223Z,1.08
2023-05-16T12:53:12.162Z,1.17
2023-05-16T12:58:13.881Z,1.10
2023-05-16T13:03:15.652Z,0.80
2023-05-16T13:08:17.282Z,0.63
2023-05-16T13:13:28.765Z,0.73
2023-05-16T13:18:37.001Z,1.38
2023-05-16T13:23:38.677Z,0.90
2023-05-16T13:28:40.316Z,0.95
2023-05-16T13:33:41.906Z,1.15
2023-05-16T13:38:43.569Z,0.93
2023-05-16T13:43:45.341Z,1.20
2023-05-16T13:48:46.891Z,1.52
2023-05-16T13:53:48.640Z,0.70
2023-05-16T13:59:02.153Z,0.90
2023-05-16T14:04:05.824Z,0.80
2023-05-16T14:09:07.449Z,0.88
2023-05-16T14:14:38.134Z,1.45
2023-05-16T14:19:39.681Z,1.13
2023-05-16T14:24:41.344Z,0.75
2023-05-16T14:29:43.179Z,1.00
2023-05-16T14:34:44.804Z,1.13
2023-05-16T14:39:47.239Z,0.90
2023-05-16T14:44:48.873Z,0.90
2023-05-16T14:49:50.618Z,0.65
2023-05-16T14:54:52.232Z,1.05
2023-05-16T14:59:53.790Z,0.60
2023-05-16T15:04:55.345Z,1.58
2023-05-16T15:09:56.952Z,1.33
2023-05-16T15:14:58.501Z,1.25
2023-05-16T15:20:00.097Z,1.40
2023-05-16T15:25:02.009Z,1.05
2023-05-16T15:30:04.106Z,1.85
2023-05-16T15:35:06.245Z,1.10
2023-05-16T15:40:08.457Z,1.45
2023-05-16T15:45:11.700Z,1.42
2023-05-16T15:50:13.791Z,1.50
2023-05-16T15:55:15.438Z,1.98
2023-05-16T16:00:17.457Z,1.60
2023-05-16T16:05:19.073Z,1.60
2023-05-16T16:10:22.553Z,1.63
2023-05-16T16:15:24.264Z,1.40
2023-05-16T16:20:26.186Z,1.60
2023-05-16T16:25:27.985Z,1.50
2023-05-16T16:30:29.869Z,1.50
2023-05-16T16:35:31.503Z,1.38
2023-05-16T16:40:33.188Z,1.95
2023-05-16T16:45:34.733Z,1.52
2023-05-16T16:50:36.489Z,2.08
2023-05-16T16:55:40.596Z,1.80
2023-05-16T17:00:42.676Z,1.55
2023-05-16T17:05:44.423Z,1.42
2023-05-16T17:10:46.049Z,1.58
2023-05-16T17:15:47.705Z,1.33
2023-05-16T17:20:49.234Z,1.20
2023-05-16T17:25:50.816Z,1.50
2023-05-16T17:30:52.407Z,1.65
2023-05-16T17:35:53.956Z,1.83
2023-05-16T17:40:55.520Z,1.13
2023-05-16T17:45:57.205Z,1.70
2023-05-16T17:50:59.129Z,1.48
2023-05-16T17:56:00.686Z,2.08
2023-05-16T18:01:02.952Z,1.75
2023-05-16T18:06:04.883Z,1.38
2023-05-16T18:11:06.613Z,1.48
2023-05-16T18:16:08.194Z,1.67
2023-05-16T18:21:10.007Z,1.30
2023-05-16T18:26:11.696Z,2.20
2023-05-16T18:31:13.375Z,1.40
2023-05-16T18:36:15.168Z,1.52
2023-05-16T18:41:16.902Z,1.52
2023-05-16T18:46:18.867Z,1.80
2023-05-16T18:51:20.473Z,1.42
2023-05-16T18:56:22.172Z,1.50
2023-05-16T19:01:23.943Z,1.77
2023-05-16T19:06:25.675Z,1.73
2023-05-16T19:11:27.386Z,1.77
2023-05-16T19:16:29.096Z,1.77
2023-05-16T19:21:31.797Z,1.65
2023-05-16T19:26:33.485Z,1.70
2023-05-16T19:31:35.164Z,1.77
2023-05-16T19:36:36.786Z,1.55
2023-05-16T19:41:38.482Z,1.98
2023-05-16T19:46:40.108Z,1.58
2023-05-16T19:51:42.386Z,2.15
2023-05-16T19:56:44.305Z,1.98
2023-05-16T20:01:46.048Z,2.05
2023-05-16T20:06:47.647Z,1.77
2023-05-16T20:11:49.324Z,1.80
2023-05-16T20:16:50.956Z,1.98
2023-05-16T20:21:52.737Z,1.60
2023-05-16T20:26:54.338Z,2.78
2023-05-16T20:31:56.102Z,2.22
2023-05-16T20:36:58.142Z,1.80
2023-05-16T20:41:59.814Z,1.98
2023-05-16T20:47:01.491Z,2.30
2023-05-16T20:52:03.847Z,1.88
2023-05-16T20:57:05.664Z,1.58
2023-05-16T21:02:07.493Z,1.73
2023-05-16T21:07:09.097Z,1.63
2023-05-16T21:12:10.685Z,2.78
2023-05-16T21:17:12.337Z,1.92
2023-05-16T21:22:14.084Z,1.75
2023-05-16T21:27:15.733Z,1.75
2023-05-16T21:32:17.403Z,2.30
2023-05-16T21:37:19.042Z,1.80
2023-05-16T21:42:20.659Z,2.17
2023-05-16T21:47:22.401Z,1.75
2023-05-16T21:52:24.124Z,2.42
2023-05-16T21:57:25.786Z,1.83
2023-05-16T22:02:27.367Z,2.10
2023-05-16T22:07:29.178Z,2.10
2023-05-16T22:12:30.813Z,2.13
2023-05-16T22:17:32.555Z,2.85
2023-05-16T22:22:34.259Z,2.63
2023-05-16T22:27:35.808Z,2.17
2023-05-16T22:32:37.515Z,1.67
2023-05-16T22:37:39.274Z,1.83
2023-05-16T22:42:40.830Z,2.85
2023-05-16T22:47:42.444Z,1.77
2023-05-16T22:52:44.186Z,2.45
2023-05-16T22:57:45.772Z,1.67
2023-05-16T23:02:47.634Z,1.77
2023-05-16T23:07:49.261Z,2.45
2023-05-16T23:12:50.850Z,2.70
2023-05-16T23:17:52.516Z,2.55
2023-05-16T23:22:54.173Z,2.15
2023-05-16T23:27:55.698Z,1.83
2023-05-16T23:32:57.343Z,2.17
2023-05-16T23:37:58.947Z,2.85
2023-05-16T23:43:00.681Z,2.13
2023-05-16T23:48:02.349Z,2.63
2023-05-16T23:53:04.131Z,2.00
2023-05-16T23:58:05.698Z,1.98
